sensor_id;sensor_type;location;lat;lon;timestamp;temperature;humidity
20722;DHT22;10522;52.198;9.890;2023-01-01T00:00:37;15.80;99.90
20722;DHT22;10522;52.198;9.890;2023-01-01T00:03:03;15.80;99.90
20722;DHT22;10522;52.198;9.890;2023-01-01T00:05:28;15.80;99.90
20722;DHT22;10522;52.198;9.890;2023-01-01T00:07:54;15.90;99.90
20722;DHT22;10522;52.198;9.890;2023-01-01T00:10:19;16.00;99.90
20722;DHT22;10522;52.198;9.890;2023-01-01T00:12:57;16.10;99.90
20722;DHT22;10522;52.198;9.890;2023-01-01T00:15:25;16.00;99.90
20722;DHT22;10522;52.198;9.890;2023-01-01T00:17:51;16.00;99.90
20722;DHT22;10522;52.198;9.890;2023-01-01T00:20:16;16.10;99.90
20722;DHT22;10522;52.198;9.890;2023-01-01T00:22:42;16.20;99.90
20722;DHT22;10522;52.198;9.890;2023-01-01T00:25:10;16.40;99.90
20722;DHT22;10522;52.198;9.890;2023-01-01T00:27:39;16.30;99.90
20722;DHT22;10522;52.198;9.890;2023-01-01T00:30:05;16.30;99.90
20722;DHT22;10522;52.198;9.890;2023-01-01T00:32:31;16.30;99.90
20722;DHT22;10522;52.198;9.890;2023-01-01T00:34:57;16.40;99.90
20722;DHT22;10522;52.198;9.890;2023-01-01T00:37:23;16.40;99.90
20722;DHT22;10522;52.198;9.890;2023-01-01T00:39:48;16.50;99.90
20722;DHT22;10522;52.198;9.890;2023-01-01T00:42:15;16.40;99.90
20722;DHT22;10522;52.198;9.890;2023-01-01T00:44:41;16.10;99.90
20722;DHT22;10522;52.198;9.890;2023-01-01T00:47:07;16.00;99.90
20722;DHT22;10522;52.198;9.890;2023-01-01T00:49:32;16.00;99.90
20722;DHT22;10522;52.198;9.890;2023-01-01T00:51:58;16.00;99.90
20722;DHT22;10522;52.198;9.890;2023-01-01T00:54:24;16.10;99.90
20722;DHT22;10522;52.198;9.890;2023-01-01T00:56:50;16.20;99.90
20722;DHT22;10522;52.198;9.890;2023-01-01T00:59:15;16.20;99.90
20722;DHT22;10522;52.198;9.890;2023-01-01T01:01:41;16.20;99.90
20722;DHT22;10522;52.198;9.890;2023-01-01T01:04:06;16.20;99.90
20722;DHT22;10522;52.198;9.890;2023-01-01T01:06:34;16.10;99.90
20722;DHT22;10522;52.198;9.890;2023-01-01T01:08:59;16.20;99.90
20722;DHT22;10522;52.198;9.890;2023-01-01T01:11:25;16.20;99.90
20722;DHT22;10522;52.198;9.890;2023-01-01T01:13:53;16.30;99.90
20722;DHT22;10522;52.198;9.890;2023-01-01T01:16:23;16.30;99.90
20722;DHT22;10522;52.198;9.890;2023-01-01T01:18:51;16.20;99.90
20722;DHT22;10522;52.198;9.890;2023-01-01T01:21:18;16.20;99.90
20722;DHT22;10522;52.198;9.890;2023-01-01T01:23:44;16.40;99.90
20722;DHT22;10522;52.198;9.890;2023-01-01T01:26:16;16.20;99.90
20722;DHT22;10522;52.198;9.890;2023-01-01T01:28:42;16.30;99.90
20722;DHT22;10522;52.198;9.890;2023-01-01T01:31:08;16.30;99.90
20722;DHT22;10522;52.198;9.890;2023-01-01T01:33:34;16.30;99.90
20722;DHT22;10522;52.198;9.890;2023-01-01T01:36:01;16.30;99.90
20722;DHT22;10522;52.198;9.890;2023-01-01T01:38:26;16.30;99.90
20722;DHT22;10522;52.198;9.890;2023-01-01T01:40:52;16.30;99.90
20722;DHT22;10522;52.198;9.890;2023-01-01T01:46:00;16.20;99.90
20722;DHT22;10522;52.198;9.890;2023-01-01T01:48:32;16.10;99.90
20722;DHT22;10522;52.198;9.890;2023-01-01T01:50:59;16.10;99.90
20722;DHT22;10522;52.198;9.890;2023-01-01T01:53:28;15.90;99.90
20722;DHT22;10522;52.198;9.890;2023-01-01T01:56:09;15.80;99.90
20722;DHT22;10522;52.198;9.890;2023-01-01T01:58:35;15.90;99.90
20722;DHT22;10522;52.198;9.890;2023-01-01T02:01:02;16.00;99.90
20722;DHT22;10522;52.198;9.890;2023-01-01T02:03:44;15.90;99.90
20722;DHT22;10522;52.198;9.890;2023-01-01T02:06:12;15.80;99.90
20722;DHT22;10522;52.198;9.890;2023-01-01T02:08:38;15.90;99.90
20722;DHT22;10522;52.198;9.890;2023-01-01T02:11:03;15.70;99.90
20722;DHT22;10522;52.198;9.890;2023-01-01T02:13:29;15.70;99.90
20722;DHT22;10522;52.198;9.890;2023-01-01T02:18:28;16.00;99.90
20722;DHT22;10522;52.198;9.890;2023-01-01T02:20:58;15.90;99.90
20722;DHT22;10522;52.198;9.890;2023-01-01T02:29:35;15.50;99.90
20722;DHT22;10522;52.198;9.890;2023-01-01T02:32:07;15.50;99.90
20722;DHT22;10522;52.198;9.890;2023-01-01T02:34:48;15.50;99.90
20722;DHT22;10522;52.198;9.890;2023-01-01T02:37:17;15.40;99.90
20722;DHT22;10522;52.198;9.890;2023-01-01T02:40:01;15.30;99.90
20722;DHT22;10522;52.198;9.890;2023-01-01T02:42:28;15.60;99.90
20722;DHT22;10522;52.198;9.890;2023-01-01T02:44:55;15.70;99.90
20722;DHT22;10522;52.198;9.890;2023-01-01T02:47:22;15.90;99.90
20722;DHT22;10522;52.198;9.890;2023-01-01T02:50:07;15.80;99.90
20722;DHT22;10522;52.198;9.890;2023-01-01T02:57:57;15.80;99.90
20722;DHT22;10522;52.198;9.890;2023-01-01T03:00:47;15.90;99.90
20722;DHT22;10522;52.198;9.890;2023-01-01T03:03:33;15.70;99.90
20722;DHT22;10522;52.198;9.890;2023-01-01T03:09:02;15.80;99.90
20722;DHT22;10522;52.198;9.890;2023-01-01T03:11:50;15.80;99.90
20722;DHT22;10522;52.198;9.890;2023-01-01T03:15:13;15.70;99.90
20722;DHT22;10522;52.198;9.890;2023-01-01T03:20:44;15.60;99.90
20722;DHT22;10522;52.198;9.890;2023-01-01T03:23:16;15.60;99.90
20722;DHT22;10522;52.198;9.890;2023-01-01T03:25:47;15.50;99.90
20722;DHT22;10522;52.198;9.890;2023-01-01T03:28:18;15.50;99.90
20722;DHT22;10522;52.198;9.890;2023-01-01T03:30:46;15.40;99.90
20722;DHT22;10522;52.198;9.890;2023-01-01T03:35:56;15.50;99.90
20722;DHT22;10522;52.198;9.890;2023-01-01T03:38:36;15.50;99.90
20722;DHT22;10522;52.198;9.890;2023-01-01T03:41:06;15.40;99.90
20722;DHT22;10522;52.198;9.890;2023-01-01T03:43:43;15.40;99.90
20722;DHT22;10522;52.198;9.890;2023-01-01T03:46:12;15.30;99.90
20722;DHT22;10522;52.198;9.890;2023-01-01T03:48:39;15.40;99.90
20722;DHT22;10522;52.198;9.890;2023-01-01T03:51:56;15.50;99.90
20722;DHT22;10522;52.198;9.890;2023-01-01T03:54:49;15.30;99.90
20722;DHT22;10522;52.198;9.890;2023-01-01T03:57:52;15.30;99.90
20722;DHT22;10522;52.198;9.890;2023-01-01T04:00:24;15.20;99.90
20722;DHT22;10522;52.198;9.890;2023-01-01T04:03:02;15.40;99.90
20722;DHT22;10522;52.198;9.890;2023-01-01T04:05:30;15.30;99.90
20722;DHT22;10522;52.198;9.890;2023-01-01T04:07:59;15.30;99.90
20722;DHT22;10522;52.198;9.890;2023-01-01T04:10:27;15.40;99.90
20722;DHT22;10522;52.198;9.890;2023-01-01T04:12:56;15.30;99.90
20722;DHT22;10522;52.198;9.890;2023-01-01T04:15:24;15.30;99.90
20722;DHT22;10522;52.198;9.890;2023-01-01T04:17:50;15.30;99.90
20722;DHT22;10522;52.198;9.890;2023-01-01T04:20:17;15.20;99.90
20722;DHT22;10522;52.198;9.890;2023-01-01T04:22:43;15.20;99.90
20722;DHT22;10522;52.198;9.890;2023-01-01T04:25:09;15.30;99.90
20722;DHT22;10522;52.198;9.890;2023-01-01T04:27:35;15.10;99.90
20722;DHT22;10522;52.198;9.890;2023-01-01T04:30:02;15.30;99.90
20722;DHT22;10522;52.198;9.890;2023-01-01T04:32:28;15.30;99.90
20722;DHT22;10522;52.198;9.890;2023-01-01T04:34:54;15.20;99.90
20722;DHT22;10522;52.198;9.890;2023-01-01T04:37:19;15.10;99.90
20722;DHT22;10522;52.198;9.890;2023-01-01T04:39:45;15.30;99.90
20722;DHT22;10522;52.198;9.890;2023-01-01T04:42:10;15.40;99.90
20722;DHT22;10522;52.198;9.890;2023-01-01T04:44:36;15.20;99.90
20722;DHT22;10522;52.198;9.890;2023-01-01T04:47:02;15.30;99.90
20722;DHT22;10522;52.198;9.890;2023-01-01T04:49:27;15.30;99.90
20722;DHT22;10522;52.198;9.890;2023-01-01T04:51:53;15.10;99.90
20722;DHT22;10522;52.198;9.890;2023-01-01T04:54:18;15.30;99.90
20722;DHT22;10522;52.198;9.890;2023-01-01T04:56:44;15.20;99.90
20722;DHT22;10522;52.198;9.890;2023-01-01T04:59:09;15.20;99.90
20722;DHT22;10522;52.198;9.890;2023-01-01T05:01:35;15.10;99.90
20722;DHT22;10522;52.198;9.890;2023-01-01T05:04:00;15.10;99.90
20722;DHT22;10522;52.198;9.890;2023-01-01T05:06:26;15.10;99.90
20722;DHT22;10522;52.198;9.890;2023-01-01T05:08:54;15.10;99.90
20722;DHT22;10522;52.198;9.890;2023-01-01T05:11:25;15.00;99.90
20722;DHT22;10522;52.198;9.890;2023-01-01T05:13:53;14.90;99.90
20722;DHT22;10522;52.198;9.890;2023-01-01T05:16:21;15.00;99.90
20722;DHT22;10522;52.198;9.890;2023-01-01T05:18:47;15.00;99.90
20722;DHT22;10522;52.198;9.890;2023-01-01T05:21:15;15.00;99.90
20722;DHT22;10522;52.198;9.890;2023-01-01T05:23:41;15.00;99.90
20722;DHT22;10522;52.198;9.890;2023-01-01T05:26:15;14.80;99.90
20722;DHT22;10522;52.198;9.890;2023-01-01T05:28:42;14.90;99.90
20722;DHT22;10522;52.198;9.890;2023-01-01T05:31:10;14.90;99.90
20722;DHT22;10522;52.198;9.890;2023-01-01T05:33:37;15.00;99.90
20722;DHT22;10522;52.198;9.890;2023-01-01T05:36:04;14.90;99.90
20722;DHT22;10522;52.198;9.890;2023-01-01T05:38:30;14.90;99.90
20722;DHT22;10522;52.198;9.890;2023-01-01T05:40:56;15.00;99.90
20722;DHT22;10522;52.198;9.890;2023-01-01T05:43:21;14.80;99.90
20722;DHT22;10522;52.198;9.890;2023-01-01T05:45:47;14.70;99.90
20722;DHT22;10522;52.198;9.890;2023-01-01T05:48:13;14.70;99.90
20722;DHT22;10522;52.198;9.890;2023-01-01T05:50:38;14.70;99.90
20722;DHT22;10522;52.198;9.890;2023-01-01T05:53:04;14.80;99.90
20722;DHT22;10522;52.198;9.890;2023-01-01T05:55:30;14.80;99.90
20722;DHT22;10522;52.198;9.890;2023-01-01T05:57:56;14.70;99.90
20722;DHT22;10522;52.198;9.890;2023-01-01T06:00:22;14.90;99.90
20722;DHT22;10522;52.198;9.890;2023-01-01T06:02:48;14.80;99.90
20722;DHT22;10522;52.198;9.890;2023-01-01T06:05:15;14.70;99.90
20722;DHT22;10522;52.198;9.890;2023-01-01T06:07:41;14.80;99.90
20722;DHT22;10522;52.198;9.890;2023-01-01T06:10:07;14.90;99.90
20722;DHT22;10522;52.198;9.890;2023-01-01T06:12:32;14.90;99.90
20722;DHT22;10522;52.198;9.890;2023-01-01T06:14:58;14.90;99.90
20722;DHT22;10522;52.198;9.890;2023-01-01T06:17:24;14.70;99.90
20722;DHT22;10522;52.198;9.890;2023-01-01T06:19:49;14.70;99.90
20722;DHT22;10522;52.198;9.890;2023-01-01T06:22:15;14.60;99.90
20722;DHT22;10522;52.198;9.890;2023-01-01T06:24:40;14.60;99.90
20722;DHT22;10522;52.198;9.890;2023-01-01T06:27:06;14.70;99.90
20722;DHT22;10522;52.198;9.890;2023-01-01T06:29:31;14.50;99.90
20722;DHT22;10522;52.198;9.890;2023-01-01T06:31:57;14.50;99.90
20722;DHT22;10522;52.198;9.890;2023-01-01T06:34:23;14.30;99.90
20722;DHT22;10522;52.198;9.890;2023-01-01T06:36:48;14.40;99.90
20722;DHT22;10522;52.198;9.890;2023-01-01T06:39:14;14.30;99.90
20722;DHT22;10522;52.198;9.890;2023-01-01T06:41:39;14.20;99.90
20722;DHT22;10522;52.198;9.890;2023-01-01T06:44:05;14.20;99.90
20722;DHT22;10522;52.198;9.890;2023-01-01T06:46:32;14.10;99.90
20722;DHT22;10522;52.198;9.890;2023-01-01T06:49:04;14.10;99.90
20722;DHT22;10522;52.198;9.890;2023-01-01T06:51:32;14.00;99.90
20722;DHT22;10522;52.198;9.890;2023-01-01T06:54:00;14.20;99.90
20722;DHT22;10522;52.198;9.890;2023-01-01T06:56:27;14.20;99.90
20722;DHT22;10522;52.198;9.890;2023-01-01T06:58:52;14.30;99.90
20722;DHT22;10522;52.198;9.890;2023-01-01T07:01:20;14.30;99.90
20722;DHT22;10522;52.198;9.890;2023-01-01T07:03:52;14.30;99.90
20722;DHT22;10522;52.198;9.890;2023-01-01T07:06:17;14.40;99.90
20722;DHT22;10522;52.198;9.890;2023-01-01T07:08:43;14.20;99.90
20722;DHT22;10522;52.198;9.890;2023-01-01T07:11:09;14.30;99.90
20722;DHT22;10522;52.198;9.890;2023-01-01T07:13:34;14.20;99.90
20722;DHT22;10522;52.198;9.890;2023-01-01T07:16:00;14.30;99.90
20722;DHT22;10522;52.198;9.890;2023-01-01T07:18:26;14.30;99.90
20722;DHT22;10522;52.198;9.890;2023-01-01T07:23:18;14.50;99.90
20722;DHT22;10522;52.198;9.890;2023-01-01T07:25:44;14.60;99.90
20722;DHT22;10522;52.198;9.890;2023-01-01T07:28:10;14.40;99.90
20722;DHT22;10522;52.198;9.890;2023-01-01T07:30:36;14.40;99.90
20722;DHT22;10522;52.198;9.890;2023-01-01T07:33:03;14.40;99.90
20722;DHT22;10522;52.198;9.890;2023-01-01T07:35:29;14.30;99.90
20722;DHT22;10522;52.198;9.890;2023-01-01T07:37:54;14.30;99.90
20722;DHT22;10522;52.198;9.890;2023-01-01T07:40:20;14.40;99.90
20722;DHT22;10522;52.198;9.890;2023-01-01T07:42:45;14.30;99.90
20722;DHT22;10522;52.198;9.890;2023-01-01T07:45:12;14.30;99.90
20722;DHT22;10522;52.198;9.890;2023-01-01T07:47:37;14.30;99.90
20722;DHT22;10522;52.198;9.890;2023-01-01T07:50:03;14.20;99.90
20722;DHT22;10522;52.198;9.890;2023-01-01T07:52:29;14.30;99.90
20722;DHT22;10522;52.198;9.890;2023-01-01T07:54:55;14.40;99.90
20722;DHT22;10522;52.198;9.890;2023-01-01T07:57:20;14.40;99.90
20722;DHT22;10522;52.198;9.890;2023-01-01T07:59:46;14.30;99.90
20722;DHT22;10522;52.198;9.890;2023-01-01T08:02:11;14.40;99.90
20722;DHT22;10522;52.198;9.890;2023-01-01T08:04:37;14.60;99.90
20722;DHT22;10522;52.198;9.890;2023-01-01T08:07:03;14.40;99.90
20722;DHT22;10522;52.198;9.890;2023-01-01T08:09:29;14.40;99.90
20722;DHT22;10522;52.198;9.890;2023-01-01T08:11:54;14.50;99.90
20722;DHT22;10522;52.198;9.890;2023-01-01T08:14:23;14.30;99.90
20722;DHT22;10522;52.198;9.890;2023-01-01T08:16:50;14.50;99.90
20722;DHT22;10522;52.198;9.890;2023-01-01T08:19:15;14.40;99.90
20722;DHT22;10522;52.198;9.890;2023-01-01T08:21:41;14.40;99.90
20722;DHT22;10522;52.198;9.890;2023-01-01T08:24:07;14.50;99.90
20722;DHT22;10522;52.198;9.890;2023-01-01T08:26:34;14.40;99.90
20722;DHT22;10522;52.198;9.890;2023-01-01T08:29:04;14.50;99.90
20722;DHT22;10522;52.198;9.890;2023-01-01T08:31:30;14.40;99.90
20722;DHT22;10522;52.198;9.890;2023-01-01T08:33:56;14.40;99.90
20722;DHT22;10522;52.198;9.890;2023-01-01T08:36:21;14.30;99.90
20722;DHT22;10522;52.198;9.890;2023-01-01T08:38:47;14.20;99.90
20722;DHT22;10522;52.198;9.890;2023-01-01T08:41:13;14.10;99.90
20722;DHT22;10522;52.198;9.890;2023-01-01T08:43:38;14.10;99.90
20722;DHT22;10522;52.198;9.890;2023-01-01T08:46:04;14.10;99.90
20722;DHT22;10522;52.198;9.890;2023-01-01T08:48:30;14.20;99.90
20722;DHT22;10522;52.198;9.890;2023-01-01T08:50:57;14.20;99.90
20722;DHT22;10522;52.198;9.890;2023-01-01T08:53:25;14.30;99.90
20722;DHT22;10522;52.198;9.890;2023-01-01T08:56:05;14.30;99.90
20722;DHT22;10522;52.198;9.890;2023-01-01T08:58:33;14.30;99.90
20722;DHT22;10522;52.198;9.890;2023-01-01T09:00:59;14.20;99.90
20722;DHT22;10522;52.198;9.890;2023-01-01T09:03:25;14.10;99.90
20722;DHT22;10522;52.198;9.890;2023-01-01T09:05:51;14.20;99.90
20722;DHT22;10522;52.198;9.890;2023-01-01T09:08:17;14.20;99.90
20722;DHT22;10522;52.198;9.890;2023-01-01T09:10:43;14.20;99.90
20722;DHT22;10522;52.198;9.890;2023-01-01T09:13:10;14.20;99.90
20722;DHT22;10522;52.198;9.890;2023-01-01T09:15:36;14.00;99.90
20722;DHT22;10522;52.198;9.890;2023-01-01T09:18:01;14.00;99.90
20722;DHT22;10522;52.198;9.890;2023-01-01T09:20:27;14.10;99.90
20722;DHT22;10522;52.198;9.890;2023-01-01T09:22:53;14.10;99.90
20722;DHT22;10522;52.198;9.890;2023-01-01T09:25:18;14.20;99.90
20722;DHT22;10522;52.198;9.890;2023-01-01T09:27:44;14.20;99.90
20722;DHT22;10522;52.198;9.890;2023-01-01T09:30:10;14.20;99.90
20722;DHT22;10522;52.198;9.890;2023-01-01T09:32:36;14.20;99.90
20722;DHT22;10522;52.198;9.890;2023-01-01T09:35:02;14.20;99.90
20722;DHT22;10522;52.198;9.890;2023-01-01T09:37:27;14.30;99.90
20722;DHT22;10522;52.198;9.890;2023-01-01T09:39:53;14.20;99.90
20722;DHT22;10522;52.198;9.890;2023-01-01T09:42:45;14.20;99.90
20722;DHT22;10522;52.198;9.890;2023-01-01T09:45:37;14.10;99.90
20722;DHT22;10522;52.198;9.890;2023-01-01T09:48:07;14.00;99.90
20722;DHT22;10522;52.198;9.890;2023-01-01T09:50:39;14.00;99.90
20722;DHT22;10522;52.198;9.890;2023-01-01T09:56:26;14.10;99.90
20722;DHT22;10522;52.198;9.890;2023-01-01T09:58:52;14.00;99.90
20722;DHT22;10522;52.198;9.890;2023-01-01T10:07:16;14.10;99.90
20722;DHT22;10522;52.198;9.890;2023-01-01T10:10:25;14.00;99.90
20722;DHT22;10522;52.198;9.890;2023-01-01T10:13:20;14.00;99.90
20722;DHT22;10522;52.198;9.890;2023-01-01T10:18:44;13.80;99.90
20722;DHT22;10522;52.198;9.890;2023-01-01T10:21:31;13.30;99.90
20722;DHT22;10522;52.198;9.890;2023-01-01T10:26:53;12.80;99.90
20722;DHT22;10522;52.198;9.890;2023-01-01T10:29:39;12.60;99.90
20722;DHT22;10522;52.198;9.890;2023-01-01T10:32:21;12.50;99.90
20722;DHT22;10522;52.198;9.890;2023-01-01T10:34:51;12.50;99.90
20722;DHT22;10522;52.198;9.890;2023-01-01T10:37:17;12.40;99.90
20722;DHT22;10522;52.198;9.890;2023-01-01T10:39:44;12.40;99.90
20722;DHT22;10522;52.198;9.890;2023-01-01T10:42:12;12.30;99.90
20722;DHT22;10522;52.198;9.890;2023-01-01T10:44:38;12.30;99.90
20722;DHT22;10522;52.198;9.890;2023-01-01T10:50:08;12.50;99.90
20722;DHT22;10522;52.198;9.890;2023-01-01T10:52:41;12.50;99.90
20722;DHT22;10522;52.198;9.890;2023-01-01T10:55:21;12.40;99.90
20722;DHT22;10522;52.198;9.890;2023-01-01T10:57:47;12.40;99.90
20722;DHT22;10522;52.198;9.890;2023-01-01T11:03:04;12.30;99.90
20722;DHT22;10522;52.198;9.890;2023-01-01T11:05:33;12.40;99.90
20722;DHT22;10522;52.198;9.890;2023-01-01T11:07:59;12.40;99.90
20722;DHT22;10522;52.198;9.890;2023-01-01T11:10:25;12.40;99.90
20722;DHT22;10522;52.198;9.890;2023-01-01T11:12:50;12.50;99.90
20722;DHT22;10522;52.198;9.890;2023-01-01T11:15:43;12.50;99.90
20722;DHT22;10522;52.198;9.890;2023-01-01T11:18:19;12.30;99.90
20722;DHT22;10522;52.198;9.890;2023-01-01T11:20:57;12.20;99.90
20722;DHT22;10522;52.198;9.890;2023-01-01T11:23:28;12.20;99.90
20722;DHT22;10522;52.198;9.890;2023-01-01T11:26:07;12.00;99.90
20722;DHT22;10522;52.198;9.890;2023-01-01T11:28:59;12.00;99.90
20722;DHT22;10522;52.198;9.890;2023-01-01T11:31:37;11.90;99.90
20722;DHT22;10522;52.198;9.890;2023-01-01T11:34:31;12.00;99.90
20722;DHT22;10522;52.198;9.890;2023-01-01T11:37:10;12.00;99.90
20722;DHT22;10522;52.198;9.890;2023-01-01T11:39:36;12.00;99.90
20722;DHT22;10522;52.198;9.890;2023-01-01T11:42:05;12.00;99.90
20722;DHT22;10522;52.198;9.890;2023-01-01T11:44:44;11.90;99.90
20722;DHT22;10522;52.198;9.890;2023-01-01T11:47:38;12.00;99.90
20722;DHT22;10522;52.198;9.890;2023-01-01T11:50:28;12.00;99.90
20722;DHT22;10522;52.198;9.890;2023-01-01T11:52:56;12.00;99.90
20722;DHT22;10522;52.198;9.890;2023-01-01T11:55:41;11.90;99.90
20722;DHT22;10522;52.198;9.890;2023-01-01T11:58:22;11.90;99.90
20722;DHT22;10522;52.198;9.890;2023-01-01T12:00:53;11.80;99.90
20722;DHT22;10522;52.198;9.890;2023-01-01T12:03:40;11.80;99.90
20722;DHT22;10522;52.198;9.890;2023-01-01T12:06:14;11.80;99.90
20722;DHT22;10522;52.198;9.890;2023-01-01T12:19:25;11.80;99.90
20722;DHT22;10522;52.198;9.890;2023-01-01T12:21:56;11.80;99.90
20722;DHT22;10522;52.198;9.890;2023-01-01T12:24:25;11.70;99.90
20722;DHT22;10522;52.198;9.890;2023-01-01T12:27:04;11.70;99.90
20722;DHT22;10522;52.198;9.890;2023-01-01T12:32:29;11.60;99.90
20722;DHT22;10522;52.198;9.890;2023-01-01T12:35:16;11.70;99.90
20722;DHT22;10522;52.198;9.890;2023-01-01T12:38:14;11.60;99.90
20722;DHT22;10522;52.198;9.890;2023-01-01T12:40:50;11.70;99.90
20722;DHT22;10522;52.198;9.890;2023-01-01T12:44:34;11.70;99.90
20722;DHT22;10522;52.198;9.890;2023-01-01T12:49:35;11.60;99.90
20722;DHT22;10522;52.198;9.890;2023-01-01T12:57:30;11.70;99.90
20722;DHT22;10522;52.198;9.890;2023-01-01T13:00:00;11.70;99.90
20722;DHT22;10522;52.198;9.890;2023-01-01T13:02:28;11.80;99.90
20722;DHT22;10522;52.198;9.890;2023-01-01T13:05:14;11.90;99.90
20722;DHT22;10522;52.198;9.890;2023-01-01T13:07:44;11.90;99.90
20722;DHT22;10522;52.198;9.890;2023-01-01T13:13:16;12.00;99.90
20722;DHT22;10522;52.198;9.890;2023-01-01T13:15:43;12.00;99.90
20722;DHT22;10522;52.198;9.890;2023-01-01T13:20:44;12.10;99.90
20722;DHT22;10522;52.198;9.890;2023-01-01T13:31:58;11.70;99.90
20722;DHT22;10522;52.198;9.890;2023-01-01T13:42:43;11.50;99.90
20722;DHT22;10522;52.198;9.890;2023-01-01T13:45:23;11.50;99.90
20722;DHT22;10522;52.198;9.890;2023-01-01T14:04:33;11.10;99.90
20722;DHT22;10522;52.198;9.890;2023-01-01T14:07:15;11.10;99.90
20722;DHT22;10522;52.198;9.890;2023-01-01T14:09:43;11.00;99.90
20722;DHT22;10522;52.198;9.890;2023-01-01T14:12:16;11.00;99.90
20722;DHT22;10522;52.198;9.890;2023-01-01T14:14:42;11.00;99.90
20722;DHT22;10522;52.198;9.890;2023-01-01T14:17:07;11.00;99.90
20722;DHT22;10522;52.198;9.890;2023-01-01T14:19:34;11.00;99.90
20722;DHT22;10522;52.198;9.890;2023-01-01T14:22:00;11.00;99.90
20722;DHT22;10522;52.198;9.890;2023-01-01T14:24:26;10.90;99.90
20722;DHT22;10522;52.198;9.890;2023-01-01T14:26:53;10.90;99.90
20722;DHT22;10522;52.198;9.890;2023-01-01T14:29:26;10.80;99.90
20722;DHT22;10522;52.198;9.890;2023-01-01T14:31:53;10.80;99.90
20722;DHT22;10522;52.198;9.890;2023-01-01T14:34:25;10.80;99.90
20722;DHT22;10522;52.198;9.890;2023-01-01T14:36:53;10.90;99.90
20722;DHT22;10522;52.198;9.890;2023-01-01T14:39:30;10.70;99.90
20722;DHT22;10522;52.198;9.890;2023-01-01T14:42:15;10.70;99.90
20722;DHT22;10522;52.198;9.890;2023-01-01T14:44:43;10.70;99.90
20722;DHT22;10522;52.198;9.890;2023-01-01T14:47:33;10.60;99.90
20722;DHT22;10522;52.198;9.890;2023-01-01T14:50:23;10.60;99.90
20722;DHT22;10522;52.198;9.890;2023-01-01T14:52:52;10.80;99.90
20722;DHT22;10522;52.198;9.890;2023-01-01T14:55:19;11.40;99.90
20722;DHT22;10522;52.198;9.890;2023-01-01T14:57:54;11.80;99.90
20722;DHT22;10522;52.198;9.890;2023-01-01T15:00:23;12.10;99.90
20722;DHT22;10522;52.198;9.890;2023-01-01T15:02:50;12.30;99.90
20722;DHT22;10522;52.198;9.890;2023-01-01T15:05:36;12.40;99.90
20722;DHT22;10522;52.198;9.890;2023-01-01T15:08:04;12.40;99.90
20722;DHT22;10522;52.198;9.890;2023-01-01T15:10:33;12.30;99.90
20722;DHT22;10522;52.198;9.890;2023-01-01T15:13:04;12.20;99.90
20722;DHT22;10522;52.198;9.890;2023-01-01T15:15:38;12.30;99.90
20722;DHT22;10522;52.198;9.890;2023-01-01T15:18:05;12.30;99.90
20722;DHT22;10522;52.198;9.890;2023-01-01T15:20:31;12.30;99.90
20722;DHT22;10522;52.198;9.890;2023-01-01T15:22:58;12.30;99.90
20722;DHT22;10522;52.198;9.890;2023-01-01T15:25:24;12.20;99.90
20722;DHT22;10522;52.198;9.890;2023-01-01T15:27:51;12.20;99.90
20722;DHT22;10522;52.198;9.890;2023-01-01T15:30:27;12.20;99.90
20722;DHT22;10522;52.198;9.890;2023-01-01T15:32:54;12.10;99.90
20722;DHT22;10522;52.198;9.890;2023-01-01T15:35:22;12.00;99.90
20722;DHT22;10522;52.198;9.890;2023-01-01T15:37:57;12.10;99.90
20722;DHT22;10522;52.198;9.890;2023-01-01T15:45:28;12.10;99.90
20722;DHT22;10522;52.198;9.890;2023-01-01T15:47:56;12.20;99.90
20722;DHT22;10522;52.198;9.890;2023-01-01T15:50:32;12.20;99.90
20722;DHT22;10522;52.198;9.890;2023-01-01T15:53:09;12.30;99.90
20722;DHT22;10522;52.198;9.890;2023-01-01T15:55:36;12.30;99.90
20722;DHT22;10522;52.198;9.890;2023-01-01T15:58:18;12.20;99.90
20722;DHT22;10522;52.198;9.890;2023-01-01T16:00:54;12.10;99.90
20722;DHT22;10522;52.198;9.890;2023-01-01T16:03:21;12.00;99.90
20722;DHT22;10522;52.198;9.890;2023-01-01T16:05:51;12.00;99.90
20722;DHT22;10522;52.198;9.890;2023-01-01T16:08:17;11.90;99.90
20722;DHT22;10522;52.198;9.890;2023-01-01T16:10:44;11.80;99.90
20722;DHT22;10522;52.198;9.890;2023-01-01T16:13:10;11.70;99.90
20722;DHT22;10522;52.198;9.890;2023-01-01T16:15:46;11.80;99.90
20722;DHT22;10522;52.198;9.890;2023-01-01T16:18:16;11.70;99.90
20722;DHT22;10522;52.198;9.890;2023-01-01T16:20:42;11.70;99.90
20722;DHT22;10522;52.198;9.890;2023-01-01T16:23:09;11.60;99.90
20722;DHT22;10522;52.198;9.890;2023-01-01T16:25:35;11.70;99.90
20722;DHT22;10522;52.198;9.890;2023-01-01T16:28:00;11.90;99.90
20722;DHT22;10522;52.198;9.890;2023-01-01T16:30:28;11.90;99.90
20722;DHT22;10522;52.198;9.890;2023-01-01T16:32:54;11.90;99.90
20722;DHT22;10522;52.198;9.890;2023-01-01T16:35:20;12.00;99.90
20722;DHT22;10522;52.198;9.890;2023-01-01T16:37:45;12.00;99.90
20722;DHT22;10522;52.198;9.890;2023-01-01T16:40:11;11.90;99.90
20722;DHT22;10522;52.198;9.890;2023-01-01T16:42:37;12.10;99.90
20722;DHT22;10522;52.198;9.890;2023-01-01T16:45:04;12.00;99.90
20722;DHT22;10522;52.198;9.890;2023-01-01T16:47:29;12.10;99.90
20722;DHT22;10522;52.198;9.890;2023-01-01T16:49:55;12.10;99.90
20722;DHT22;10522;52.198;9.890;2023-01-01T16:52:20;12.20;99.90
20722;DHT22;10522;52.198;9.890;2023-01-01T16:54:46;12.20;99.90
20722;DHT22;10522;52.198;9.890;2023-01-01T16:57:12;12.30;99.90
20722;DHT22;10522;52.198;9.890;2023-01-01T16:59:38;12.40;99.90
20722;DHT22;10522;52.198;9.890;2023-01-01T17:02:03;12.40;99.90
20722;DHT22;10522;52.198;9.890;2023-01-01T17:04:29;12.50;99.90
20722;DHT22;10522;52.198;9.890;2023-01-01T17:06:56;12.50;99.90
20722;DHT22;10522;52.198;9.890;2023-01-01T17:09:21;12.50;99.90
20722;DHT22;10522;52.198;9.890;2023-01-01T17:11:47;12.50;99.90
20722;DHT22;10522;52.198;9.890;2023-01-01T17:14:13;12.60;99.90
20722;DHT22;10522;52.198;9.890;2023-01-01T17:16:38;12.60;99.90
20722;DHT22;10522;52.198;9.890;2023-01-01T17:19:04;12.70;99.90
20722;DHT22;10522;52.198;9.890;2023-01-01T17:21:30;12.80;99.90
20722;DHT22;10522;52.198;9.890;2023-01-01T17:23:55;12.70;99.90
20722;DHT22;10522;52.198;9.890;2023-01-01T17:26:23;12.80;99.90
20722;DHT22;10522;52.198;9.890;2023-01-01T17:28:51;12.60;99.90
20722;DHT22;10522;52.198;9.890;2023-01-01T17:31:18;12.70;99.90
20722;DHT22;10522;52.198;9.890;2023-01-01T17:33:45;12.80;99.90
20722;DHT22;10522;52.198;9.890;2023-01-01T17:36:10;12.80;99.90
20722;DHT22;10522;52.198;9.890;2023-01-01T17:38:36;12.70;99.90
20722;DHT22;10522;52.198;9.890;2023-01-01T17:41:05;12.70;99.90